(°C)
-5°
-5°
-4°
-4°
-5°
-5°
-5°
(°C)
-10°
-9°
-9°
-10°
-10°
-10°
-10°
SSE
S
S
S
S
S
S
(km/h)
8-22
10-24
12-26
12-28
13-31
13-33
12-33
(mm)
0
0
0
0
0
0
0
(%)
0
0
0
0
0
0
0

Élévation du soleil

/ 11.2°
sun-icon
UV 0
07:53
15:53
Gibbeuse décroissante (209°)
18:22
09:34

METAR pour 55.61°N 49.28°E (UWKD)

Heure Conditions Température/
Point de rosée
Vent Visibilité Météo Nuages Pression Changement Brut
MVFR -6°C / -8°C 170º 10kt >10km - Overcast 2200ft 1015 No Significant change. Runway 11: Dry snow, 11-25% contamination with 3mm, friction coefficient 0.42. UWKD 200630Z 17005MPS 9999 OVC022 M06/M08 Q1015 R11/420342 NOSIG RMK QFE751/1001
MVFR -7°C / -8°C 170º 8kt >10km - Overcast 1600ft 1014 No Significant change. Runway 11: Dry snow, 11-25% contamination with 3mm, friction coefficient 0.42. UWKD 200600Z 17004MPS 9999 OVC016 M07/M08 Q1014 R11/420342 NOSIG RMK QFE751/1001
IFR -7°C / -9°C 190º 6kt >10km - Overcast 700ft 1015 No Significant change. Runway 29: Dry snow, 11-25% contamination with 3mm, friction coefficient 0.42. UWKD 200530Z 19003MPS 9999 OVC007 M07/M09 Q1015 R29/420342 NOSIG RMK QFE750/1000
MVFR -7°C / -9°C 190º 6kt >10km - Overcast 1000ft 1015 No Significant change. Runway 29: Dry snow, 11-25% contamination with 3mm, friction coefficient 0.42. UWKD 200500Z 19003MPS 9999 OVC010 M07/M09 Q1015 R29/420342 NOSIG RMK QFE750/1000
MVFR -7°C / -9°C 200º 8kt >10km - Broken Clouds 1200ft 1014 No Significant change. Runway 29: Dry snow, 11-25% contamination with 3mm, friction coefficient 0.42. UWKD 200430Z 20004MPS 9999 BKN012 M07/M09 Q1014 R29/420342 NOSIG RMK QFE750/1000
MVFR -7°C / -9°C 210º 8kt >10km - Broken Clouds 1900ft 1014 No Significant change. Runway 29: Dry snow, 11-25% contamination with 3mm, friction coefficient 0.42. UWKD 200400Z 21004MPS 9999 BKN019 M07/M09 Q1014 R29/420342 NOSIG RMK QFE750/1000
MVFR -7°C / -9°C 210º 10kt >10km - Broken Clouds 1100ft 1014 No Significant change. Runway 29: Dry snow, 11-25% contamination with 3mm, friction coefficient 0.42. UWKD 200330Z 21005MPS 9999 BKN011 M07/M09 Q1014 R29/420342 NOSIG RMK QFE750/1000
IFR -7°C / -9°C 210º 10kt >10km - Overcast 600ft 1015 No Significant change. Runway 29: Dry snow, 11-25% contamination with 3mm, friction coefficient 0.42. UWKD 200300Z 21005MPS 9999 OVC006 M07/M09 Q1015 R29/420342 NOSIG RMK QFE750/1000
IFR -7°C / -9°C 190º 8kt >10km - Overcast 900ft 1015 No Significant change. Runway 29: Dry snow, 11-25% contamination with 3mm, friction coefficient 0.42. UWKD 200230Z 19004MPS 9999 OVC009 M07/M09 Q1015 R29/420342 NOSIG RMK QFE750/1000
MVFR -7°C / -9°C 170º 6kt >10km - Overcast 1000ft 1015 No Significant change. Runway 29: Dry snow, 11-25% contamination with 3mm, friction coefficient 0.42. UWKD 200200Z 17003MPS 9999 OVC010 M07/M09 Q1015 R29/420342 NOSIG RMK QFE750/1000
MVFR -7°C / °C 190º 8kt >10km - Overcast 1100ft 1015 No Significant change. Runway 29: Dry snow, 11-25% contamination with 3mm, friction coefficient 0.42. UWKD 200130Z 19004MPS 9999 OVC011 M07/M10 Q1015 R29/420342 NOSIG RMK QFE750/1000
MVFR -7°C / °C 220º 6kt >10km - Overcast 1200ft 1015 No Significant change. Runway 29: Dry snow, 11-25% contamination with 3mm, friction coefficient 0.42. UWKD 200100Z 22003MPS 9999 OVC012 M07/M10 Q1015 R29/420342 NOSIG RMK QFE750/1000
MVFR -8°C / °C 250º 6kt >10km - Overcast 1100ft 1015 No Significant change. Runway 29: Dry snow, 11-25% contamination with 3mm, friction coefficient 0.42. UWKD 200030Z 25003MPS 9999 OVC011 M08/M10 Q1015 R29/420342 NOSIG RMK QFE750/1000
MVFR -8°C / °C 250º 8kt >10km - Overcast 1300ft 1015 No Significant change. Runway 29: Dry snow, 11-25% contamination with 3mm, friction coefficient 0.42. UWKD 200000Z 25004MPS 9999 OVC013 M08/M10 Q1015 R29/420342 NOSIG RMK QFE750/1000
MVFR -8°C / °C 240º variable 200º to 260º 10kt >10km - Overcast 1300ft 1015 No Significant change. Runway 29: Dry snow, 11-25% contamination with 3mm, friction coefficient 0.42. UWKD 192330Z 24005MPS 200V260 9999 OVC013 M08/M11 Q1015 R29/420342 NOSIG RMK QFE750/1000
MVFR -8°C / °C 240º variable 190º to 270º 6kt >10km - Overcast 1400ft 1015 No Significant change. Runway 29: Dry snow, 11-25% contamination with 3mm, friction coefficient 0.42. UWKD 192300Z 24003MPS 190V270 9999 OVC014 M08/M10 Q1015 R29/420342 NOSIG RMK QFE750/1000
MVFR -8°C / °C 250º 4kt >10km - Overcast 1500ft 1015 No Significant change. Runway 29: Dry snow, 11-25% contamination with 3mm, friction coefficient 0.42. UWKD 192230Z 25002MPS 9999 OVC015 M08/M10 Q1015 R29/420342 NOSIG RMK QFE750/1000
MVFR -8°C / °C 270º 8kt >10km - Overcast 1500ft 1015 No Significant change. Runway 29: Dry snow, 11-25% contamination with 3mm, friction coefficient 0.42. UWKD 192200Z 27004MPS 9999 OVC015 M08/M10 Q1015 R29/420342 NOSIG RMK QFE750/1000
MVFR -8°C / °C 260º 8kt >10km - Overcast 1500ft 1014 No Significant change. Runway 29: Dry snow, 11-25% contamination with 3mm, friction coefficient 0.42. UWKD 192130Z 26004MPS 9999 OVC015 M08/M10 Q1014 R29/420342 NOSIG RMK QFE750/1000
MVFR -8°C / -9°C 270º 8kt >10km - Overcast 1600ft 1014 No Significant change. Runway 29: Dry snow, 11-25% contamination with 3mm, friction coefficient 0.42. UWKD 192100Z 27004MPS 9999 OVC016 M08/M09 Q1014 R29/420342 NOSIG RMK QFE750/1000
MVFR -8°C / -9°C 280º 8kt >10km - Overcast 2100ft 1014 No Significant change. Runway 29: Dry snow, 11-25% contamination with 3mm, friction coefficient 0.42. UWKD 192030Z 28004MPS 9999 OVC021 M08/M09 Q1014 R29/420342 NOSIG RMK QFE749/0999
MVFR -8°C / °C 270º 4kt >10km - Overcast 2300ft 1014 No Significant change. Runway 29: Dry snow, 11-25% contamination with 3mm, friction coefficient 0.42. UWKD 192000Z 27002MPS 9999 OVC023 M08/M10 Q1014 R29/420342 NOSIG RMK QFE749/0999
MVFR -9°C / °C 280º 6kt >10km - Overcast 2800ft 1014 No Significant change. Runway 29: Dry snow, 11-25% contamination with 3mm, friction coefficient 0.42. UWKD 191930Z 28003MPS 9999 OVC028 M09/M11 Q1014 R29/420342 NOSIG RMK QFE749/0999
VFR -8°C / -9°C 290º 8kt >10km - Clouds and Visibility OK 1014 No Significant change. Runway 29: Dry snow, 51-100% contamination with 3mm, friction coefficient 0.35. UWKD 191900Z 29004MPS CAVOK M08/M09 Q1014 R29/490335 NOSIG RMK QFE749/0999

MVFR

-6°C / -8°C

[Plus]
Vent 170º 10kt
Visibilité >10km
Météo -
Nuages Overcast 2200ft
Pression 1015
Changement No Significant change. Runway 11: Dry snow, 11-25% contamination with 3mm, friction coefficient 0.42.
Brut UWKD 200630Z 17005MPS 9999 OVC022 M06/M08 Q1015 R11/420342 NOSIG RMK QFE751/1001

MVFR

-7°C / -8°C

[Plus]
Vent 170º 8kt
Visibilité >10km
Météo -
Nuages Overcast 1600ft
Pression 1014
Changement No Significant change. Runway 11: Dry snow, 11-25% contamination with 3mm, friction coefficient 0.42.
Brut UWKD 200600Z 17004MPS 9999 OVC016 M07/M08 Q1014 R11/420342 NOSIG RMK QFE751/1001

IFR

-7°C / -9°C

[Plus]
Vent 190º 6kt
Visibilité >10km
Météo -
Nuages Overcast 700ft
Pression 1015
Changement No Significant change. Runway 29: Dry snow, 11-25% contamination with 3mm, friction coefficient 0.42.
Brut UWKD 200530Z 19003MPS 9999 OVC007 M07/M09 Q1015 R29/420342 NOSIG RMK QFE750/1000

MVFR

-7°C / -9°C

[Plus]
Vent 190º 6kt
Visibilité >10km
Météo -
Nuages Overcast 1000ft
Pression 1015
Changement No Significant change. Runway 29: Dry snow, 11-25% contamination with 3mm, friction coefficient 0.42.
Brut UWKD 200500Z 19003MPS 9999 OVC010 M07/M09 Q1015 R29/420342 NOSIG RMK QFE750/1000

MVFR

-7°C / -9°C

[Plus]
Vent 200º 8kt
Visibilité >10km
Météo -
Nuages Broken Clouds 1200ft
Pression 1014
Changement No Significant change. Runway 29: Dry snow, 11-25% contamination with 3mm, friction coefficient 0.42.
Brut UWKD 200430Z 20004MPS 9999 BKN012 M07/M09 Q1014 R29/420342 NOSIG RMK QFE750/1000

MVFR

-7°C / -9°C

[Plus]
Vent 210º 8kt
Visibilité >10km
Météo -
Nuages Broken Clouds 1900ft
Pression 1014
Changement No Significant change. Runway 29: Dry snow, 11-25% contamination with 3mm, friction coefficient 0.42.
Brut UWKD 200400Z 21004MPS 9999 BKN019 M07/M09 Q1014 R29/420342 NOSIG RMK QFE750/1000

MVFR

-7°C / -9°C

[Plus]
Vent 210º 10kt
Visibilité >10km
Météo -
Nuages Broken Clouds 1100ft
Pression 1014
Changement No Significant change. Runway 29: Dry snow, 11-25% contamination with 3mm, friction coefficient 0.42.
Brut UWKD 200330Z 21005MPS 9999 BKN011 M07/M09 Q1014 R29/420342 NOSIG RMK QFE750/1000

IFR

-7°C / -9°C

[Plus]
Vent 210º 10kt
Visibilité >10km
Météo -
Nuages Overcast 600ft
Pression 1015
Changement No Significant change. Runway 29: Dry snow, 11-25% contamination with 3mm, friction coefficient 0.42.
Brut UWKD 200300Z 21005MPS 9999 OVC006 M07/M09 Q1015 R29/420342 NOSIG RMK QFE750/1000

IFR

-7°C / -9°C

[Plus]
Vent 190º 8kt
Visibilité >10km
Météo -
Nuages Overcast 900ft
Pression 1015
Changement No Significant change. Runway 29: Dry snow, 11-25% contamination with 3mm, friction coefficient 0.42.
Brut UWKD 200230Z 19004MPS 9999 OVC009 M07/M09 Q1015 R29/420342 NOSIG RMK QFE750/1000

MVFR

-7°C / -9°C

[Plus]
Vent 170º 6kt
Visibilité >10km
Météo -
Nuages Overcast 1000ft
Pression 1015
Changement No Significant change. Runway 29: Dry snow, 11-25% contamination with 3mm, friction coefficient 0.42.
Brut UWKD 200200Z 17003MPS 9999 OVC010 M07/M09 Q1015 R29/420342 NOSIG RMK QFE750/1000

MVFR

-7°C / °C

[Plus]
Vent 190º 8kt
Visibilité >10km
Météo -
Nuages Overcast 1100ft
Pression 1015
Changement No Significant change. Runway 29: Dry snow, 11-25% contamination with 3mm, friction coefficient 0.42.
Brut UWKD 200130Z 19004MPS 9999 OVC011 M07/M10 Q1015 R29/420342 NOSIG RMK QFE750/1000

MVFR

-7°C / °C

[Plus]
Vent 220º 6kt
Visibilité >10km
Météo -
Nuages Overcast 1200ft
Pression 1015
Changement No Significant change. Runway 29: Dry snow, 11-25% contamination with 3mm, friction coefficient 0.42.
Brut UWKD 200100Z 22003MPS 9999 OVC012 M07/M10 Q1015 R29/420342 NOSIG RMK QFE750/1000

MVFR

-8°C / °C

[Plus]
Vent 250º 6kt
Visibilité >10km
Météo -
Nuages Overcast 1100ft
Pression 1015
Changement No Significant change. Runway 29: Dry snow, 11-25% contamination with 3mm, friction coefficient 0.42.
Brut UWKD 200030Z 25003MPS 9999 OVC011 M08/M10 Q1015 R29/420342 NOSIG RMK QFE750/1000

MVFR

-8°C / °C

[Plus]
Vent 250º 8kt
Visibilité >10km
Météo -
Nuages Overcast 1300ft
Pression 1015
Changement No Significant change. Runway 29: Dry snow, 11-25% contamination with 3mm, friction coefficient 0.42.
Brut UWKD 200000Z 25004MPS 9999 OVC013 M08/M10 Q1015 R29/420342 NOSIG RMK QFE750/1000

MVFR

-8°C / °C

[Plus]
Vent 240º variable 200º to 260º 10kt
Visibilité >10km
Météo -
Nuages Overcast 1300ft
Pression 1015
Changement No Significant change. Runway 29: Dry snow, 11-25% contamination with 3mm, friction coefficient 0.42.
Brut UWKD 192330Z 24005MPS 200V260 9999 OVC013 M08/M11 Q1015 R29/420342 NOSIG RMK QFE750/1000

MVFR

-8°C / °C

[Plus]
Vent 240º variable 190º to 270º 6kt
Visibilité >10km
Météo -
Nuages Overcast 1400ft
Pression 1015
Changement No Significant change. Runway 29: Dry snow, 11-25% contamination with 3mm, friction coefficient 0.42.
Brut UWKD 192300Z 24003MPS 190V270 9999 OVC014 M08/M10 Q1015 R29/420342 NOSIG RMK QFE750/1000

MVFR

-8°C / °C

[Plus]
Vent 250º 4kt
Visibilité >10km
Météo -
Nuages Overcast 1500ft
Pression 1015
Changement No Significant change. Runway 29: Dry snow, 11-25% contamination with 3mm, friction coefficient 0.42.
Brut UWKD 192230Z 25002MPS 9999 OVC015 M08/M10 Q1015 R29/420342 NOSIG RMK QFE750/1000

MVFR

-8°C / °C

[Plus]
Vent 270º 8kt
Visibilité >10km
Météo -
Nuages Overcast 1500ft
Pression 1015
Changement No Significant change. Runway 29: Dry snow, 11-25% contamination with 3mm, friction coefficient 0.42.
Brut UWKD 192200Z 27004MPS 9999 OVC015 M08/M10 Q1015 R29/420342 NOSIG RMK QFE750/1000

MVFR

-8°C / °C

[Plus]
Vent 260º 8kt
Visibilité >10km
Météo -
Nuages Overcast 1500ft
Pression 1014
Changement No Significant change. Runway 29: Dry snow, 11-25% contamination with 3mm, friction coefficient 0.42.
Brut UWKD 192130Z 26004MPS 9999 OVC015 M08/M10 Q1014 R29/420342 NOSIG RMK QFE750/1000

MVFR

-8°C / -9°C

[Plus]
Vent 270º 8kt
Visibilité >10km
Météo -
Nuages Overcast 1600ft
Pression 1014
Changement No Significant change. Runway 29: Dry snow, 11-25% contamination with 3mm, friction coefficient 0.42.
Brut UWKD 192100Z 27004MPS 9999 OVC016 M08/M09 Q1014 R29/420342 NOSIG RMK QFE750/1000

MVFR

-8°C / -9°C

[Plus]
Vent 280º 8kt
Visibilité >10km
Météo -
Nuages Overcast 2100ft
Pression 1014
Changement No Significant change. Runway 29: Dry snow, 11-25% contamination with 3mm, friction coefficient 0.42.
Brut UWKD 192030Z 28004MPS 9999 OVC021 M08/M09 Q1014 R29/420342 NOSIG RMK QFE749/0999

MVFR

-8°C / °C

[Plus]
Vent 270º 4kt
Visibilité >10km
Météo -
Nuages Overcast 2300ft
Pression 1014
Changement No Significant change. Runway 29: Dry snow, 11-25% contamination with 3mm, friction coefficient 0.42.
Brut UWKD 192000Z 27002MPS 9999 OVC023 M08/M10 Q1014 R29/420342 NOSIG RMK QFE749/0999

MVFR

-9°C / °C

[Plus]
Vent 280º 6kt
Visibilité >10km
Météo -
Nuages Overcast 2800ft
Pression 1014
Changement No Significant change. Runway 29: Dry snow, 11-25% contamination with 3mm, friction coefficient 0.42.
Brut UWKD 191930Z 28003MPS 9999 OVC028 M09/M11 Q1014 R29/420342 NOSIG RMK QFE749/0999

VFR

-8°C / -9°C

[Plus]
Vent 290º 8kt
Visibilité >10km
Météo -
Nuages Clouds and Visibility OK
Pression 1014
Changement No Significant change. Runway 29: Dry snow, 51-100% contamination with 3mm, friction coefficient 0.35.
Brut UWKD 191900Z 29004MPS CAVOK M08/M09 Q1014 R29/490335 NOSIG RMK QFE749/0999

TAF pour 55.61°N 49.28°E (UWKD)

From till


Maximum Temperature -5ºC on . Minimum Temperature -11ºC on .
From till Wind 170º 10kt. Gust 19kt. Visibility 10km or more. Overcast 1100ft.
Temporarly from till Visibility 2100m. Light Snow . Broken Clouds 400ft.

Brut: TAF AMD UWKD 200626Z 2007/2106 17005G10MPS 9999 OVC011 TXM05/2012Z TNM11/2103Z TEMPO 2007/2012 2100 -SN BKN004

Radar et prévision de précipitation à court terme pour 55.61°N 49.28°E

Bruine
Légère
Modéré
Fort
Très fort
Grêle

Le marqueur est placé sur 55.61°N 49.28°E. Cette animation montre le Radar des précipitations pour les dernières heures, ainsi qu'une 1h prévision. La bruine ou les légères chutes de neiges peuvent ne pas être détectées par le radar. L'intensité des précipitations est visible avec un code couleur allant du bleu clair au violet foncé et orange.

Les images satellites et les pluies actuelles pour 55.61°N 49.28°E

Le marqueur est placé sur 55.61°N 49.28°E. [Plus]

L'image satellite en temps réel combine la lumière visible pendant la journée et le rayonnement infrarouge pendant la nuit. La nuit, l'image n'est pas sombre car le rayonnement infrarouge permet de détecter les différences de température. Malheureusement, les nuages bas et le brouillard sont difficiles à distinguer des températures au sol et peuvent donc être presque invisibles pendant la nuit. Les images des satellites Météosat pour l'Europe sont mises à jour en temps réel toutes les 5 minutes. Les images GOES-16/GOES-17 (Amérique du Nord et du Sud) et Himawari (Asie) sont mises à jour toutes les 10 minutes.

Copyright 2022 EUMETSAT / meteoblue. / Copyright 2022 meteoblue